sensor_id;sensor_type;location;lat;lon;timestamp;P1;durP1;ratioP1;P2;durP2;ratioP2
8474;SDS011;4274;52.012;8.448;2023-04-29T00:00:41;71.67;;;21.50;;
8474;SDS011;4274;52.012;8.448;2023-04-29T00:03:06;76.87;;;23.50;;
8474;SDS011;4274;52.012;8.448;2023-04-29T00:05:32;78.60;;;23.57;;
8474;SDS011;4274;52.012;8.448;2023-04-29T00:07:58;70.60;;;21.80;;
8474;SDS011;4274;52.012;8.448;2023-04-29T00:10:23;75.37;;;23.37;;
8474;SDS011;4274;52.012;8.448;2023-04-29T00:12:49;71.83;;;22.93;;
8474;SDS011;4274;52.012;8.448;2023-04-29T00:15:15;81.10;;;25.10;;
8474;SDS011;4274;52.012;8.448;2023-04-29T00:17:41;77.07;;;24.40;;
8474;SDS011;4274;52.012;8.448;2023-04-29T00:20:07;80.23;;;25.43;;
8474;SDS011;4274;52.012;8.448;2023-04-29T00:22:34;79.60;;;25.13;;
8474;SDS011;4274;52.012;8.448;2023-04-29T00:24:59;81.13;;;26.30;;
8474;SDS011;4274;52.012;8.448;2023-04-29T00:27:25;79.47;;;25.50;;
8474;SDS011;4274;52.012;8.448;2023-04-29T00:29:51;81.07;;;27.10;;
8474;SDS011;4274;52.012;8.448;2023-04-29T00:32:17;89.20;;;27.33;;
8474;SDS011;4274;52.012;8.448;2023-04-29T00:34:42;81.17;;;27.43;;
8474;SDS011;4274;52.012;8.448;2023-04-29T00:37:08;82.30;;;27.17;;
8474;SDS011;4274;52.012;8.448;2023-04-29T00:39:33;89.67;;;29.87;;
8474;SDS011;4274;52.012;8.448;2023-04-29T00:41:59;82.23;;;27.30;;
8474;SDS011;4274;52.012;8.448;2023-04-29T00:44:25;85.40;;;29.07;;
8474;SDS011;4274;52.012;8.448;2023-04-29T00:46:50;88.33;;;29.43;;
8474;SDS011;4274;52.012;8.448;2023-04-29T00:49:16;92.03;;;29.33;;
8474;SDS011;4274;52.012;8.448;2023-04-29T00:51:41;90.07;;;28.77;;
8474;SDS011;4274;52.012;8.448;2023-04-29T00:54:08;99.83;;;30.90;;
8474;SDS011;4274;52.012;8.448;2023-04-29T00:56:35;100.03;;;31.30;;
8474;SDS011;4274;52.012;8.448;2023-04-29T00:59:03;94.07;;;30.30;;
8474;SDS011;4274;52.012;8.448;2023-04-29T01:01:30;91.63;;;30.30;;
8474;SDS011;4274;52.012;8.448;2023-04-29T01:03:56;96.47;;;32.43;;
8474;SDS011;4274;52.012;8.448;2023-04-29T01:06:25;97.03;;;31.17;;
8474;SDS011;4274;52.012;8.448;2023-04-29T01:11:52;100.10;;;33.00;;
8474;SDS011;4274;52.012;8.448;2023-04-29T01:14:28;104.53;;;32.30;;
8474;SDS011;4274;52.012;8.448;2023-04-29T01:16:58;98.00;;;31.03;;
8474;SDS011;4274;52.012;8.448;2023-04-29T01:22:22;103.20;;;31.00;;
8474;SDS011;4274;52.012;8.448;2023-04-29T01:24:48;100.10;;;32.00;;
8474;SDS011;4274;52.012;8.448;2023-04-29T01:33:22;100.57;;;30.13;;
8474;SDS011;4274;52.012;8.448;2023-04-29T01:38:48;100.67;;;31.50;;
8474;SDS011;4274;52.012;8.448;2023-04-29T01:44:28;107.60;;;33.10;;
8474;SDS011;4274;52.012;8.448;2023-04-29T01:46:56;107.87;;;33.63;;
8474;SDS011;4274;52.012;8.448;2023-04-29T01:49:23;116.87;;;34.00;;
8474;SDS011;4274;52.012;8.448;2023-04-29T01:51:52;116.10;;;35.77;;
8474;SDS011;4274;52.012;8.448;2023-04-29T01:54:18;110.27;;;34.03;;
8474;SDS011;4274;52.012;8.448;2023-04-29T01:56:45;108.63;;;33.70;;
8474;SDS011;4274;52.012;8.448;2023-04-29T01:59:10;111.30;;;33.53;;
8474;SDS011;4274;52.012;8.448;2023-04-29T02:01:36;119.23;;;34.13;;
8474;SDS011;4274;52.012;8.448;2023-04-29T02:04:02;113.53;;;32.77;;
8474;SDS011;4274;52.012;8.448;2023-04-29T02:06:28;115.20;;;35.33;;
8474;SDS011;4274;52.012;8.448;2023-04-29T02:08:56;122.50;;;36.47;;
8474;SDS011;4274;52.012;8.448;2023-04-29T02:11:22;116.30;;;35.83;;
8474;SDS011;4274;52.012;8.448;2023-04-29T02:13:47;118.73;;;33.50;;
8474;SDS011;4274;52.012;8.448;2023-04-29T02:16:13;117.30;;;34.10;;
8474;SDS011;4274;52.012;8.448;2023-04-29T02:18:40;116.37;;;33.80;;
8474;SDS011;4274;52.012;8.448;2023-04-29T02:21:05;116.07;;;34.13;;
8474;SDS011;4274;52.012;8.448;2023-04-29T02:23:31;124.23;;;34.47;;
8474;SDS011;4274;52.012;8.448;2023-04-29T02:25:58;112.97;;;33.70;;
8474;SDS011;4274;52.012;8.448;2023-04-29T02:28:23;108.50;;;30.07;;
8474;SDS011;4274;52.012;8.448;2023-04-29T02:30:49;102.00;;;30.20;;
8474;SDS011;4274;52.012;8.448;2023-04-29T02:33:15;96.17;;;27.83;;
8474;SDS011;4274;52.012;8.448;2023-04-29T02:35:42;100.20;;;26.13;;
8474;SDS011;4274;52.012;8.448;2023-04-29T02:38:08;92.77;;;26.33;;
8474;SDS011;4274;52.012;8.448;2023-04-29T02:40:34;107.83;;;29.03;;
8474;SDS011;4274;52.012;8.448;2023-04-29T02:43:05;94.33;;;27.80;;
8474;SDS011;4274;52.012;8.448;2023-04-29T02:45:30;99.70;;;28.10;;
8474;SDS011;4274;52.012;8.448;2023-04-29T02:47:56;99.70;;;28.20;;
8474;SDS011;4274;52.012;8.448;2023-04-29T02:50:21;100.70;;;29.80;;
8474;SDS011;4274;52.012;8.448;2023-04-29T02:52:49;103.03;;;29.17;;
8474;SDS011;4274;52.012;8.448;2023-04-29T02:55:15;106.77;;;30.80;;
8474;SDS011;4274;52.012;8.448;2023-04-29T03:00:07;111.43;;;30.57;;
8474;SDS011;4274;52.012;8.448;2023-04-29T03:02:34;103.10;;;29.83;;
8474;SDS011;4274;52.012;8.448;2023-04-29T03:04:59;103.47;;;31.20;;
8474;SDS011;4274;52.012;8.448;2023-04-29T03:07:25;107.27;;;30.47;;
8474;SDS011;4274;52.012;8.448;2023-04-29T03:09:52;99.03;;;28.70;;
8474;SDS011;4274;52.012;8.448;2023-04-29T03:12:18;109.13;;;31.20;;
8474;SDS011;4274;52.012;8.448;2023-04-29T03:14:44;96.57;;;29.10;;
8474;SDS011;4274;52.012;8.448;2023-04-29T03:17:10;107.93;;;31.27;;
8474;SDS011;4274;52.012;8.448;2023-04-29T03:19:36;102.67;;;30.07;;
8474;SDS011;4274;52.012;8.448;2023-04-29T03:22:01;100.10;;;31.47;;
8474;SDS011;4274;52.012;8.448;2023-04-29T03:24:27;105.87;;;31.27;;
8474;SDS011;4274;52.012;8.448;2023-04-29T03:26:52;106.90;;;30.43;;
8474;SDS011;4274;52.012;8.448;2023-04-29T03:29:18;104.83;;;27.73;;
8474;SDS011;4274;52.012;8.448;2023-04-29T03:31:44;95.33;;;28.37;;
8474;SDS011;4274;52.012;8.448;2023-04-29T03:34:10;102.63;;;28.13;;
8474;SDS011;4274;52.012;8.448;2023-04-29T03:36:38;99.33;;;30.37;;
8474;SDS011;4274;52.012;8.448;2023-04-29T03:39:04;92.50;;;27.97;;
8474;SDS011;4274;52.012;8.448;2023-04-29T03:41:29;96.80;;;29.63;;
8474;SDS011;4274;52.012;8.448;2023-04-29T03:43:55;93.63;;;28.90;;
8474;SDS011;4274;52.012;8.448;2023-04-29T03:46:25;98.00;;;27.30;;
8474;SDS011;4274;52.012;8.448;2023-04-29T03:48:51;97.53;;;28.90;;
8474;SDS011;4274;52.012;8.448;2023-04-29T03:51:17;93.03;;;27.60;;
8474;SDS011;4274;52.012;8.448;2023-04-29T03:53:43;97.20;;;29.33;;
8474;SDS011;4274;52.012;8.448;2023-04-29T03:56:08;101.43;;;29.17;;
8474;SDS011;4274;52.012;8.448;2023-04-29T03:58:34;94.17;;;27.33;;
8474;SDS011;4274;52.012;8.448;2023-04-29T04:01:00;100.20;;;30.30;;
8474;SDS011;4274;52.012;8.448;2023-04-29T04:03:25;98.20;;;29.10;;
8474;SDS011;4274;52.012;8.448;2023-04-29T04:05:52;101.10;;;27.77;;
8474;SDS011;4274;52.012;8.448;2023-04-29T04:08:17;103.60;;;30.20;;
8474;SDS011;4274;52.012;8.448;2023-04-29T04:10:43;97.77;;;29.13;;
8474;SDS011;4274;52.012;8.448;2023-04-29T04:13:09;96.63;;;27.90;;
8474;SDS011;4274;52.012;8.448;2023-04-29T04:15:34;95.17;;;27.90;;
8474;SDS011;4274;52.012;8.448;2023-04-29T04:18:00;99.97;;;29.47;;
8474;SDS011;4274;52.012;8.448;2023-04-29T04:20:25;94.07;;;28.87;;
8474;SDS011;4274;52.012;8.448;2023-04-29T04:22:51;97.07;;;28.43;;
8474;SDS011;4274;52.012;8.448;2023-04-29T04:25:18;98.93;;;31.27;;
8474;SDS011;4274;52.012;8.448;2023-04-29T04:27:44;96.93;;;30.33;;
8474;SDS011;4274;52.012;8.448;2023-04-29T04:30:10;105.33;;;29.50;;
8474;SDS011;4274;52.012;8.448;2023-04-29T04:32:36;102.93;;;31.70;;
8474;SDS011;4274;52.012;8.448;2023-04-29T04:35:03;95.63;;;27.90;;
8474;SDS011;4274;52.012;8.448;2023-04-29T04:37:29;102.33;;;31.60;;
8474;SDS011;4274;52.012;8.448;2023-04-29T04:39:54;114.23;;;33.97;;
8474;SDS011;4274;52.012;8.448;2023-04-29T04:42:21;117.60;;;35.07;;
8474;SDS011;4274;52.012;8.448;2023-04-29T04:44:47;108.60;;;34.10;;
8474;SDS011;4274;52.012;8.448;2023-04-29T04:47:12;117.40;;;36.80;;
8474;SDS011;4274;52.012;8.448;2023-04-29T04:49:38;110.73;;;34.07;;
8474;SDS011;4274;52.012;8.448;2023-04-29T04:52:04;121.10;;;38.37;;
8474;SDS011;4274;52.012;8.448;2023-04-29T04:54:30;117.30;;;39.50;;
8474;SDS011;4274;52.012;8.448;2023-04-29T04:56:55;123.60;;;37.37;;
8474;SDS011;4274;52.012;8.448;2023-04-29T04:59:21;118.37;;;36.97;;
8474;SDS011;4274;52.012;8.448;2023-04-29T05:01:47;107.00;;;36.27;;
8474;SDS011;4274;52.012;8.448;2023-04-29T05:04:12;109.50;;;35.20;;
8474;SDS011;4274;52.012;8.448;2023-04-29T05:06:39;109.33;;;33.03;;
8474;SDS011;4274;52.012;8.448;2023-04-29T05:09:05;116.33;;;34.60;;
8474;SDS011;4274;52.012;8.448;2023-04-29T05:11:30;108.47;;;33.50;;
8474;SDS011;4274;52.012;8.448;2023-04-29T05:13:56;110.03;;;32.17;;
8474;SDS011;4274;52.012;8.448;2023-04-29T05:16:22;97.03;;;31.47;;
8474;SDS011;4274;52.012;8.448;2023-04-29T05:18:47;103.17;;;30.30;;
8474;SDS011;4274;52.012;8.448;2023-04-29T05:21:13;104.70;;;30.97;;
8474;SDS011;4274;52.012;8.448;2023-04-29T05:23:39;103.73;;;32.17;;
8474;SDS011;4274;52.012;8.448;2023-04-29T05:26:04;101.40;;;30.83;;
8474;SDS011;4274;52.012;8.448;2023-04-29T05:28:30;94.97;;;29.77;;
8474;SDS011;4274;52.012;8.448;2023-04-29T05:30:55;102.37;;;29.43;;
8474;SDS011;4274;52.012;8.448;2023-04-29T05:33:21;106.53;;;31.60;;
8474;SDS011;4274;52.012;8.448;2023-04-29T05:35:47;104.10;;;31.93;;
8474;SDS011;4274;52.012;8.448;2023-04-29T05:38:12;93.77;;;29.30;;
8474;SDS011;4274;52.012;8.448;2023-04-29T05:40:38;96.13;;;29.40;;
8474;SDS011;4274;52.012;8.448;2023-04-29T05:43:04;95.83;;;28.63;;
8474;SDS011;4274;52.012;8.448;2023-04-29T05:45:30;89.67;;;29.30;;
8474;SDS011;4274;52.012;8.448;2023-04-29T05:47:55;90.87;;;28.97;;
8474;SDS011;4274;52.012;8.448;2023-04-29T05:50:21;92.40;;;29.80;;
8474;SDS011;4274;52.012;8.448;2023-04-29T05:52:47;89.13;;;26.60;;
8474;SDS011;4274;52.012;8.448;2023-04-29T05:55:12;88.40;;;27.80;;
8474;SDS011;4274;52.012;8.448;2023-04-29T05:57:38;93.70;;;29.23;;
8474;SDS011;4274;52.012;8.448;2023-04-29T06:00:04;81.90;;;27.57;;
8474;SDS011;4274;52.012;8.448;2023-04-29T06:02:31;84.40;;;27.20;;
8474;SDS011;4274;52.012;8.448;2023-04-29T06:04:57;88.63;;;27.87;;
8474;SDS011;4274;52.012;8.448;2023-04-29T06:07:22;83.20;;;26.60;;
8474;SDS011;4274;52.012;8.448;2023-04-29T06:09:49;89.63;;;27.13;;
8474;SDS011;4274;52.012;8.448;2023-04-29T06:12:14;85.80;;;26.27;;
8474;SDS011;4274;52.012;8.448;2023-04-29T06:14:40;87.20;;;27.70;;
8474;SDS011;4274;52.012;8.448;2023-04-29T06:17:06;82.97;;;27.53;;
8474;SDS011;4274;52.012;8.448;2023-04-29T06:19:32;82.87;;;27.10;;
8474;SDS011;4274;52.012;8.448;2023-04-29T06:21:57;92.60;;;30.37;;
8474;SDS011;4274;52.012;8.448;2023-04-29T06:24:23;94.30;;;29.63;;
8474;SDS011;4274;52.012;8.448;2023-04-29T06:26:49;88.60;;;29.63;;
8474;SDS011;4274;52.012;8.448;2023-04-29T06:29:15;87.60;;;28.83;;
8474;SDS011;4274;52.012;8.448;2023-04-29T06:31:41;88.07;;;31.00;;
8474;SDS011;4274;52.012;8.448;2023-04-29T06:34:06;86.80;;;30.57;;
8474;SDS011;4274;52.012;8.448;2023-04-29T06:36:32;89.33;;;29.33;;
8474;SDS011;4274;52.012;8.448;2023-04-29T06:38:58;86.83;;;28.90;;
8474;SDS011;4274;52.012;8.448;2023-04-29T06:41:23;86.97;;;30.47;;
8474;SDS011;4274;52.012;8.448;2023-04-29T06:43:49;86.70;;;30.57;;
8474;SDS011;4274;52.012;8.448;2023-04-29T06:46:15;88.00;;;30.27;;
8474;SDS011;4274;52.012;8.448;2023-04-29T06:48:41;89.83;;;31.47;;
8474;SDS011;4274;52.012;8.448;2023-04-29T06:51:06;90.43;;;30.07;;
8474;SDS011;4274;52.012;8.448;2023-04-29T06:53:32;85.47;;;30.13;;
8474;SDS011;4274;52.012;8.448;2023-04-29T06:55:58;90.80;;;30.63;;
8474;SDS011;4274;52.012;8.448;2023-04-29T06:58:24;86.43;;;30.83;;
8474;SDS011;4274;52.012;8.448;2023-04-29T07:00:49;88.40;;;30.50;;
8474;SDS011;4274;52.012;8.448;2023-04-29T07:03:15;89.67;;;30.93;;
8474;SDS011;4274;52.012;8.448;2023-04-29T07:05:43;91.17;;;32.80;;
8474;SDS011;4274;52.012;8.448;2023-04-29T07:08:13;86.03;;;30.60;;
8474;SDS011;4274;52.012;8.448;2023-04-29T07:10:39;88.87;;;29.97;;
8474;SDS011;4274;52.012;8.448;2023-04-29T07:13:05;91.20;;;31.20;;
8474;SDS011;4274;52.012;8.448;2023-04-29T07:15:34;85.37;;;30.67;;
8474;SDS011;4274;52.012;8.448;2023-04-29T07:18:02;94.10;;;29.40;;
8474;SDS011;4274;52.012;8.448;2023-04-29T07:20:30;84.27;;;30.00;;
8474;SDS011;4274;52.012;8.448;2023-04-29T07:22:56;84.73;;;31.30;;
8474;SDS011;4274;52.012;8.448;2023-04-29T07:25:22;86.70;;;29.80;;
8474;SDS011;4274;52.012;8.448;2023-04-29T07:27:48;85.30;;;30.57;;
8474;SDS011;4274;52.012;8.448;2023-04-29T07:30:13;86.90;;;30.80;;
8474;SDS011;4274;52.012;8.448;2023-04-29T07:32:39;84.50;;;30.33;;
8474;SDS011;4274;52.012;8.448;2023-04-29T07:35:05;83.83;;;29.60;;
8474;SDS011;4274;52.012;8.448;2023-04-29T07:37:30;90.63;;;30.43;;
8474;SDS011;4274;52.012;8.448;2023-04-29T07:39:56;82.80;;;28.80;;
8474;SDS011;4274;52.012;8.448;2023-04-29T07:42:21;83.13;;;28.93;;
8474;SDS011;4274;52.012;8.448;2023-04-29T07:44:47;85.10;;;27.00;;
8474;SDS011;4274;52.012;8.448;2023-04-29T07:47:13;80.97;;;26.60;;
8474;SDS011;4274;52.012;8.448;2023-04-29T07:49:38;82.63;;;26.77;;
8474;SDS011;4274;52.012;8.448;2023-04-29T07:52:04;77.93;;;26.93;;
8474;SDS011;4274;52.012;8.448;2023-04-29T07:54:30;76.93;;;25.57;;
8474;SDS011;4274;52.012;8.448;2023-04-29T07:56:58;86.37;;;28.20;;
8474;SDS011;4274;52.012;8.448;2023-04-29T07:59:25;85.13;;;28.23;;
8474;SDS011;4274;52.012;8.448;2023-04-29T08:01:51;75.03;;;24.93;;
8474;SDS011;4274;52.012;8.448;2023-04-29T08:04:17;85.60;;;28.57;;
8474;SDS011;4274;52.012;8.448;2023-04-29T08:06:43;79.47;;;28.03;;
8474;SDS011;4274;52.012;8.448;2023-04-29T08:09:09;84.10;;;28.90;;
8474;SDS011;4274;52.012;8.448;2023-04-29T08:11:35;77.17;;;26.23;;
8474;SDS011;4274;52.012;8.448;2023-04-29T08:14:00;90.57;;;29.10;;
8474;SDS011;4274;52.012;8.448;2023-04-29T08:16:26;78.03;;;27.43;;
8474;SDS011;4274;52.012;8.448;2023-04-29T08:18:52;81.73;;;28.63;;
8474;SDS011;4274;52.012;8.448;2023-04-29T08:21:18;77.67;;;25.67;;
8474;SDS011;4274;52.012;8.448;2023-04-29T08:23:44;79.47;;;27.27;;
8474;SDS011;4274;52.012;8.448;2023-04-29T08:26:09;77.17;;;26.93;;
8474;SDS011;4274;52.012;8.448;2023-04-29T08:28:37;83.43;;;28.00;;
8474;SDS011;4274;52.012;8.448;2023-04-29T08:31:03;82.97;;;26.90;;
8474;SDS011;4274;52.012;8.448;2023-04-29T08:33:31;78.30;;;28.77;;
8474;SDS011;4274;52.012;8.448;2023-04-29T08:35:59;76.30;;;27.27;;
8474;SDS011;4274;52.012;8.448;2023-04-29T08:38:27;80.63;;;27.77;;
8474;SDS011;4274;52.012;8.448;2023-04-29T08:40:56;83.43;;;28.40;;
8474;SDS011;4274;52.012;8.448;2023-04-29T08:43:22;85.73;;;26.67;;
8474;SDS011;4274;52.012;8.448;2023-04-29T08:45:48;72.00;;;24.50;;
8474;SDS011;4274;52.012;8.448;2023-04-29T08:48:14;77.37;;;24.03;;
8474;SDS011;4274;52.012;8.448;2023-04-29T08:50:41;73.57;;;24.93;;
8474;SDS011;4274;52.012;8.448;2023-04-29T08:53:07;74.10;;;26.33;;
8474;SDS011;4274;52.012;8.448;2023-04-29T08:55:35;73.83;;;23.20;;
8474;SDS011;4274;52.012;8.448;2023-04-29T08:58:04;74.43;;;22.80;;
8474;SDS011;4274;52.012;8.448;2023-04-29T09:00:31;74.13;;;23.40;;
8474;SDS011;4274;52.012;8.448;2023-04-29T09:02:58;73.80;;;23.27;;
8474;SDS011;4274;52.012;8.448;2023-04-29T09:05:26;70.33;;;21.40;;
8474;SDS011;4274;52.012;8.448;2023-04-29T09:07:52;68.87;;;21.37;;
8474;SDS011;4274;52.012;8.448;2023-04-29T09:10:23;66.80;;;21.73;;
8474;SDS011;4274;52.012;8.448;2023-04-29T09:12:50;69.27;;;19.67;;
8474;SDS011;4274;52.012;8.448;2023-04-29T09:15:15;69.80;;;22.60;;
8474;SDS011;4274;52.012;8.448;2023-04-29T09:17:42;66.40;;;20.53;;
8474;SDS011;4274;52.012;8.448;2023-04-29T09:22:48;64.77;;;21.20;;
8474;SDS011;4274;52.012;8.448;2023-04-29T09:25:18;64.90;;;19.60;;
8474;SDS011;4274;52.012;8.448;2023-04-29T09:27:44;70.13;;;21.47;;
8474;SDS011;4274;52.012;8.448;2023-04-29T09:30:10;71.00;;;19.57;;
8474;SDS011;4274;52.012;8.448;2023-04-29T09:32:37;65.50;;;19.33;;
8474;SDS011;4274;52.012;8.448;2023-04-29T09:37:49;67.43;;;18.90;;
8474;SDS011;4274;52.012;8.448;2023-04-29T09:40:31;66.60;;;20.03;;
8474;SDS011;4274;52.012;8.448;2023-04-29T09:42:58;63.90;;;19.43;;
8474;SDS011;4274;52.012;8.448;2023-04-29T09:45:34;62.07;;;18.17;;
8474;SDS011;4274;52.012;8.448;2023-04-29T09:48:01;63.33;;;17.10;;
8474;SDS011;4274;52.012;8.448;2023-04-29T09:50:28;64.30;;;17.67;;
8474;SDS011;4274;52.012;8.448;2023-04-29T09:52:54;62.33;;;18.07;;
8474;SDS011;4274;52.012;8.448;2023-04-29T09:55:20;65.53;;;18.10;;
8474;SDS011;4274;52.012;8.448;2023-04-29T09:57:45;62.10;;;16.60;;
8474;SDS011;4274;52.012;8.448;2023-04-29T10:00:11;66.47;;;17.17;;
8474;SDS011;4274;52.012;8.448;2023-04-29T10:02:40;68.07;;;19.20;;
8474;SDS011;4274;52.012;8.448;2023-04-29T10:05:07;66.57;;;16.97;;
8474;SDS011;4274;52.012;8.448;2023-04-29T10:07:34;63.53;;;17.60;;
8474;SDS011;4274;52.012;8.448;2023-04-29T10:10:00;60.87;;;16.03;;
8474;SDS011;4274;52.012;8.448;2023-04-29T10:12:29;62.10;;;16.47;;
8474;SDS011;4274;52.012;8.448;2023-04-29T10:14:59;61.10;;;17.47;;
8474;SDS011;4274;52.012;8.448;2023-04-29T10:17:44;58.97;;;14.90;;
8474;SDS011;4274;52.012;8.448;2023-04-29T10:20:14;61.27;;;15.43;;
8474;SDS011;4274;52.012;8.448;2023-04-29T10:22:47;58.37;;;14.77;;
8474;SDS011;4274;52.012;8.448;2023-04-29T10:25:14;60.23;;;15.07;;
8474;SDS011;4274;52.012;8.448;2023-04-29T10:27:41;61.00;;;15.47;;
8474;SDS011;4274;52.012;8.448;2023-04-29T10:30:10;60.23;;;13.93;;
8474;SDS011;4274;52.012;8.448;2023-04-29T10:32:41;60.70;;;15.30;;
8474;SDS011;4274;52.012;8.448;2023-04-29T10:35:12;58.57;;;14.60;;
8474;SDS011;4274;52.012;8.448;2023-04-29T10:37:42;58.27;;;15.47;;
8474;SDS011;4274;52.012;8.448;2023-04-29T10:40:23;60.87;;;15.80;;
8474;SDS011;4274;52.012;8.448;2023-04-29T10:42:55;59.10;;;14.37;;
8474;SDS011;4274;52.012;8.448;2023-04-29T10:45:31;75.50;;;13.70;;
8474;SDS011;4274;52.012;8.448;2023-04-29T10:53:13;63.83;;;13.93;;
8474;SDS011;4274;52.012;8.448;2023-04-29T10:55:40;56.27;;;13.13;;
8474;SDS011;4274;52.012;8.448;2023-04-29T11:01:01;60.10;;;16.17;;
8474;SDS011;4274;52.012;8.448;2023-04-29T11:06:11;55.93;;;14.40;;
8474;SDS011;4274;52.012;8.448;2023-04-29T11:08:37;64.20;;;16.10;;
8474;SDS011;4274;52.012;8.448;2023-04-29T11:11:06;59.40;;;13.87;;
8474;SDS011;4274;52.012;8.448;2023-04-29T11:13:36;60.30;;;15.60;;
8474;SDS011;4274;52.012;8.448;2023-04-29T11:16:03;60.63;;;14.60;;
8474;SDS011;4274;52.012;8.448;2023-04-29T11:18:34;57.13;;;14.10;;
8474;SDS011;4274;52.012;8.448;2023-04-29T11:23:35;63.80;;;14.37;;
8474;SDS011;4274;52.012;8.448;2023-04-29T11:26:02;57.37;;;14.23;;
8474;SDS011;4274;52.012;8.448;2023-04-29T11:28:29;61.23;;;14.57;;
8474;SDS011;4274;52.012;8.448;2023-04-29T11:30:56;57.90;;;15.27;;
8474;SDS011;4274;52.012;8.448;2023-04-29T11:33:23;60.37;;;14.80;;
8474;SDS011;4274;52.012;8.448;2023-04-29T11:35:49;59.47;;;13.93;;
8474;SDS011;4274;52.012;8.448;2023-04-29T11:38:15;63.23;;;15.40;;
8474;SDS011;4274;52.012;8.448;2023-04-29T11:40:41;64.60;;;15.80;;
8474;SDS011;4274;52.012;8.448;2023-04-29T11:43:17;59.57;;;15.00;;
8474;SDS011;4274;52.012;8.448;2023-04-29T11:45:44;63.73;;;13.73;;
8474;SDS011;4274;52.012;8.448;2023-04-29T11:48:20;61.20;;;13.70;;
8474;SDS011;4274;52.012;8.448;2023-04-29T11:50:47;60.50;;;14.77;;
8474;SDS011;4274;52.012;8.448;2023-04-29T11:53:21;56.30;;;12.70;;
8474;SDS011;4274;52.012;8.448;2023-04-29T11:55:49;57.93;;;12.27;;
8474;SDS011;4274;52.012;8.448;2023-04-29T11:58:16;56.00;;;12.17;;
8474;SDS011;4274;52.012;8.448;2023-04-29T12:00:45;56.73;;;12.23;;
8474;SDS011;4274;52.012;8.448;2023-04-29T12:03:15;56.97;;;12.13;;
8474;SDS011;4274;52.012;8.448;2023-04-29T12:06:00;55.57;;;10.90;;
8474;SDS011;4274;52.012;8.448;2023-04-29T12:08:27;56.00;;;11.53;;
8474;SDS011;4274;52.012;8.448;2023-04-29T12:10:55;68.57;;;12.30;;
8474;SDS011;4274;52.012;8.448;2023-04-29T12:13:22;56.10;;;11.10;;
8474;SDS011;4274;52.012;8.448;2023-04-29T12:15:49;56.93;;;10.90;;
8474;SDS011;4274;52.012;8.448;2023-04-29T12:18:16;53.57;;;10.07;;
8474;SDS011;4274;52.012;8.448;2023-04-29T12:20:43;54.23;;;11.13;;
8474;SDS011;4274;52.012;8.448;2023-04-29T12:25:47;63.57;;;12.03;;
8474;SDS011;4274;52.012;8.448;2023-04-29T12:28:17;53.13;;;9.93;;
8474;SDS011;4274;52.012;8.448;2023-04-29T12:30:47;54.63;;;10.13;;
8474;SDS011;4274;52.012;8.448;2023-04-29T12:33:18;57.97;;;11.10;;
8474;SDS011;4274;52.012;8.448;2023-04-29T12:35:51;56.87;;;11.10;;
8474;SDS011;4274;52.012;8.448;2023-04-29T12:38:21;55.50;;;10.87;;
8474;SDS011;4274;52.012;8.448;2023-04-29T12:40:48;55.87;;;11.07;;
8474;SDS011;4274;52.012;8.448;2023-04-29T12:43:15;56.50;;;11.37;;
8474;SDS011;4274;52.012;8.448;2023-04-29T12:45:40;57.93;;;10.30;;
8474;SDS011;4274;52.012;8.448;2023-04-29T12:48:06;52.53;;;10.10;;
8474;SDS011;4274;52.012;8.448;2023-04-29T12:50:33;54.40;;;11.80;;
8474;SDS011;4274;52.012;8.448;2023-04-29T12:53:00;57.83;;;10.97;;
8474;SDS011;4274;52.012;8.448;2023-04-29T12:55:28;59.27;;;11.57;;
8474;SDS011;4274;52.012;8.448;2023-04-29T12:57:56;64.30;;;11.40;;
8474;SDS011;4274;52.012;8.448;2023-04-29T13:00:22;53.90;;;10.47;;
8474;SDS011;4274;52.012;8.448;2023-04-29T13:02:48;58.07;;;11.17;;
8474;SDS011;4274;52.012;8.448;2023-04-29T13:05:13;53.70;;;10.40;;
8474;SDS011;4274;52.012;8.448;2023-04-29T13:07:39;54.23;;;10.20;;
8474;SDS011;4274;52.012;8.448;2023-04-29T13:10:05;58.27;;;10.77;;
8474;SDS011;4274;52.012;8.448;2023-04-29T13:12:32;54.93;;;10.50;;
8474;SDS011;4274;52.012;8.448;2023-04-29T13:14:58;58.93;;;10.83;;
8474;SDS011;4274;52.012;8.448;2023-04-29T13:17:23;54.10;;;11.33;;
8474;SDS011;4274;52.012;8.448;2023-04-29T13:19:49;52.50;;;10.10;;
8474;SDS011;4274;52.012;8.448;2023-04-29T13:22:15;53.70;;;11.10;;
8474;SDS011;4274;52.012;8.448;2023-04-29T13:24:41;55.67;;;11.53;;
8474;SDS011;4274;52.012;8.448;2023-04-29T13:27:07;56.03;;;10.93;;
8474;SDS011;4274;52.012;8.448;2023-04-29T13:29:32;55.03;;;10.30;;
8474;SDS011;4274;52.012;8.448;2023-04-29T13:31:58;56.60;;;11.33;;
8474;SDS011;4274;52.012;8.448;2023-04-29T13:34:23;56.27;;;10.37;;
8474;SDS011;4274;52.012;8.448;2023-04-29T13:36:49;54.70;;;10.33;;
8474;SDS011;4274;52.012;8.448;2023-04-29T13:39:15;62.30;;;10.93;;
8474;SDS011;4274;52.012;8.448;2023-04-29T13:41:41;52.97;;;9.93;;
8474;SDS011;4274;52.012;8.448;2023-04-29T13:44:07;54.07;;;9.60;;
8474;SDS011;4274;52.012;8.448;2023-04-29T13:46:32;53.90;;;9.77;;
8474;SDS011;4274;52.012;8.448;2023-04-29T13:48:58;54.87;;;8.90;;
8474;SDS011;4274;52.012;8.448;2023-04-29T13:51:24;54.73;;;9.97;;
8474;SDS011;4274;52.012;8.448;2023-04-29T13:53:49;58.63;;;9.50;;
8474;SDS011;4274;52.012;8.448;2023-04-29T13:56:15;57.57;;;9.23;;
8474;SDS011;4274;52.012;8.448;2023-04-29T13:58:40;52.17;;;8.90;;
8474;SDS011;4274;52.012;8.448;2023-04-29T14:01:06;52.43;;;8.73;;
8474;SDS011;4274;52.012;8.448;2023-04-29T14:03:32;56.33;;;8.63;;
8474;SDS011;4274;52.012;8.448;2023-04-29T14:05:58;50.43;;;7.80;;
8474;SDS011;4274;52.012;8.448;2023-04-29T14:08:23;51.63;;;7.93;;
8474;SDS011;4274;52.012;8.448;2023-04-29T14:10:49;53.30;;;7.10;;
8474;SDS011;4274;52.012;8.448;2023-04-29T14:13:15;53.00;;;7.20;;
8474;SDS011;4274;52.012;8.448;2023-04-29T14:15:41;50.00;;;7.20;;
8474;SDS011;4274;52.012;8.448;2023-04-29T14:18:07;52.20;;;7.30;;
8474;SDS011;4274;52.012;8.448;2023-04-29T14:20:33;48.60;;;6.80;;
8474;SDS011;4274;52.012;8.448;2023-04-29T14:23:00;52.70;;;8.07;;
8474;SDS011;4274;52.012;8.448;2023-04-29T14:25:25;50.30;;;7.13;;
8474;SDS011;4274;52.012;8.448;2023-04-29T14:27:51;49.20;;;7.40;;
8474;SDS011;4274;52.012;8.448;2023-04-29T14:30:17;52.50;;;8.47;;
8474;SDS011;4274;52.012;8.448;2023-04-29T14:32:42;50.40;;;7.83;;
8474;SDS011;4274;52.012;8.448;2023-04-29T14:35:08;50.33;;;7.00;;
8474;SDS011;4274;52.012;8.448;2023-04-29T14:37:34;55.43;;;8.30;;
8474;SDS011;4274;52.012;8.448;2023-04-29T14:39:59;53.63;;;8.27;;
8474;SDS011;4274;52.012;8.448;2023-04-29T14:42:25;50.57;;;7.50;;
8474;SDS011;4274;52.012;8.448;2023-04-29T14:44:51;49.03;;;7.00;;
8474;SDS011;4274;52.012;8.448;2023-04-29T14:47:18;50.57;;;7.70;;
8474;SDS011;4274;52.012;8.448;2023-04-29T14:49:43;50.20;;;7.13;;
8474;SDS011;4274;52.012;8.448;2023-04-29T14:52:09;49.40;;;7.00;;
8474;SDS011;4274;52.012;8.448;2023-04-29T14:54:34;49.03;;;6.20;;
8474;SDS011;4274;52.012;8.448;2023-04-29T14:57:00;50.33;;;6.40;;
8474;SDS011;4274;52.012;8.448;2023-04-29T14:59:26;47.17;;;5.80;;
8474;SDS011;4274;52.012;8.448;2023-04-29T15:01:54;50.40;;;5.60;;
8474;SDS011;4274;52.012;8.448;2023-04-29T15:04:20;46.90;;;5.40;;
8474;SDS011;4274;52.012;8.448;2023-04-29T15:06:46;48.50;;;5.60;;
8474;SDS011;4274;52.012;8.448;2023-04-29T15:09:12;49.13;;;5.10;;
8474;SDS011;4274;52.012;8.448;2023-04-29T15:11:38;47.80;;;5.37;;
8474;SDS011;4274;52.012;8.448;2023-04-29T15:14:03;46.97;;;6.20;;
8474;SDS011;4274;52.012;8.448;2023-04-29T15:16:30;46.67;;;5.43;;
8474;SDS011;4274;52.012;8.448;2023-04-29T15:18:56;45.97;;;5.30;;
8474;SDS011;4274;52.012;8.448;2023-04-29T15:21:21;51.50;;;5.23;;
8474;SDS011;4274;52.012;8.448;2023-04-29T15:23:47;49.40;;;5.70;;